Time;durP1;ratioP1;P1;durP2;ratioP2;P2;SDS_P1;SDS_P2;PMS_P1;PMS_P2;Temp;Humidity;BMP_temperature;BMP_pressure;BME280_temperature;BME280_humidity;BME280_pressure;Samples;Min_cycle;Max_cycle;Signal;HPM_P1;HPM_P2
2023/06/10 00:00:57;;;;;;;2.72;1.50;;;;;;;;;;5086500;28;20452;-74
2023/06/10 00:03:43;;;;;;;2.85;1.42;;;;;;;;;;5079285;28;20055;-74
2023/06/10 00:06:10;;;;;;;4.47;1.50;;;;;;;;;;5085416;28;20127;-75
2023/06/10 00:08:37;;;;;;;6.13;1.70;;;;;;;;;;5083037;28;20051;-76
2023/06/10 00:11:04;;;;;;;2.75;1.60;;;;;;;;;;5086410;28;20048;-74
2023/06/10 00:13:30;;;;;;;3.13;1.38;;;;;;;;;;5079402;28;20047;-75
2023/06/10 00:15:56;;;;;;;5.10;1.58;;;;;;;;;;5089447;28;20043;-74
2023/06/10 00:18:23;;;;;;;3.13;1.60;;;;;;;;;;5083617;28;20044;-75
2023/06/10 00:20:52;;;;;;;4.90;1.33;;;;;;;;;;5081988;28;20109;-73
2023/06/10 00:23:18;;;;;;;3.67;1.30;;;;;;;;;;5080802;28;20139;-74
2023/06/10 00:25:45;;;;;;;3.83;1.40;;;;;;;;;;5087523;28;20052;-75
2023/06/10 00:28:11;;;;;;;3.33;1.40;;;;;;;;;;5091767;28;20090;-74
2023/06/10 00:30:37;;;;;;;2.13;1.27;;;;;;;;;;5090767;28;20181;-74
2023/06/10 00:33:03;;;;;;;1.35;1.23;;;;;;;;;;5085181;28;20063;-75
2023/06/10 00:35:30;;;;;;;2.22;1.30;;;;;;;;;;5089687;28;20054;-74
2023/06/10 00:37:56;;;;;;;2.25;1.30;;;;;;;;;;5084145;28;20581;-73
2023/06/10 00:40:23;;;;;;;3.10;1.35;;;;;;;;;;5083038;28;20094;-75
2023/06/10 00:42:49;;;;;;;2.28;1.20;;;;;;;;;;5078507;28;20292;-74
2023/06/10 00:45:17;;;;;;;1.80;1.20;;;;;;;;;;5084061;28;20580;-74
2023/06/10 00:47:45;;;;;;;2.63;1.30;;;;;;;;;;5088334;28;20108;-74
2023/06/10 00:50:12;;;;;;;1.90;1.20;;;;;;;;;;5086542;28;20044;-76
2023/06/10 00:52:40;;;;;;;3.85;1.25;;;;;;;;;;5084320;28;20081;-74
2023/06/10 00:55:07;;;;;;;2.25;1.20;;;;;;;;;;5087226;28;20046;-75
2023/06/10 00:57:34;;;;;;;3.13;1.20;;;;;;;;;;5086280;28;20047;-75
2023/06/10 01:00:00;;;;;;;2.53;1.38;;;;;;;;;;5082196;28;20048;-74
2023/06/10 01:02:27;;;;;;;2.67;1.17;;;;;;;;;;5085860;28;20055;-74
2023/06/10 01:04:58;;;;;;;1.73;1.15;;;;;;;;;;5084174;28;20044;-73
2023/06/10 01:07:35;;;;;;;2.55;1.27;;;;;;;;;;5081505;28;20060;-76
2023/06/10 01:10:06;;;;;;;2.10;1.23;;;;;;;;;;5087818;28;20118;-75
2023/06/10 01:13:11;;;;;;;2.60;1.20;;;;;;;;;;5081051;28;20407;-73
2023/06/10 01:15:38;;;;;;;3.75;1.60;;;;;;;;;;5044168;28;20052;-75
2023/06/10 01:18:07;;;;;;;4.40;1.40;;;;;;;;;;5042145;28;20428;-74
2023/06/10 01:20:33;;;;;;;3.60;1.35;;;;;;;;;;5046926;28;20041;-73
2023/06/10 01:23:00;;;;;;;3.05;1.58;;;;;;;;;;5045137;28;20051;-72
2023/06/10 01:25:28;;;;;;;3.45;1.55;;;;;;;;;;5043760;28;20543;-74
2023/06/10 01:28:16;;;;;;;5.90;1.58;;;;;;;;;;5042540;28;20065;-72
2023/06/10 01:31:00;;;;;;;5.13;1.70;;;;;;;;;;5044044;28;20114;-74
2023/06/10 01:33:36;;;;;;;5.03;1.67;;;;;;;;;;5043724;28;20047;-78
2023/06/10 01:36:03;;;;;;;2.47;1.23;;;;;;;;;;5043595;28;20049;-74
2023/06/10 01:38:34;;;;;;;6.50;1.33;;;;;;;;;;5039094;28;20056;-74
2023/06/10 01:41:01;;;;;;;1.98;1.15;;;;;;;;;;5040781;28;20150;-74
2023/06/10 01:43:27;;;;;;;5.88;1.70;;;;;;;;;;5043147;28;20049;-75
2023/06/10 01:45:53;;;;;;;2.47;1.40;;;;;;;;;;5040452;28;20054;-73
2023/06/10 01:48:19;;;;;;;4.32;1.50;;;;;;;;;;5043385;28;20427;-74
2023/06/10 01:50:46;;;;;;;6.40;1.60;;;;;;;;;;5084926;28;20063;-74
2023/06/10 01:53:12;;;;;;;3.10;1.45;;;;;;;;;;5086261;28;20052;-73
2023/06/10 01:55:38;;;;;;;2.67;1.33;;;;;;;;;;5089742;28;20048;-73
2023/06/10 01:58:04;;;;;;;5.70;1.52;;;;;;;;;;5089170;28;20096;-73
2023/06/10 02:00:30;;;;;;;6.35;1.75;;;;;;;;;;5090946;28;20130;-73
2023/06/10 02:02:55;;;;;;;3.95;1.52;;;;;;;;;;5086510;28;20131;-76
2023/06/10 02:05:22;;;;;;;2.95;1.63;;;;;;;;;;5092971;28;20078;-75
2023/06/10 02:07:49;;;;;;;3.03;1.33;;;;;;;;;;5090958;28;20052;-73
2023/06/10 02:10:15;;;;;;;2.42;1.25;;;;;;;;;;5091004;28;20495;-73
2023/06/10 02:12:41;;;;;;;5.88;1.70;;;;;;;;;;5083089;28;20097;-73
2023/06/10 02:15:07;;;;;;;5.38;1.55;;;;;;;;;;5092069;28;20126;-74
2023/06/10 02:17:33;;;;;;;3.97;1.77;;;;;;;;;;5090451;28;20341;-73
2023/06/10 02:19:59;;;;;;;5.55;1.85;;;;;;;;;;5089386;28;20052;-74
2023/06/10 02:22:26;;;;;;;2.97;1.42;;;;;;;;;;5104453;27;20080;-74
2023/06/10 02:24:52;;;;;;;4.80;1.90;;;;;;;;;;5087255;28;21838;-74
2023/06/10 02:27:18;;;;;;;5.72;1.88;;;;;;;;;;5091180;28;20047;-73
2023/06/10 02:29:44;;;;;;;3.45;1.60;;;;;;;;;;5089243;28;20507;-74
2023/06/10 02:32:10;;;;;;;5.60;1.50;;;;;;;;;;5088666;28;20072;-73
2023/06/10 02:34:36;;;;;;;4.47;1.70;;;;;;;;;;5090558;28;20636;-73
2023/06/10 02:37:03;;;;;;;4.68;1.77;;;;;;;;;;5088087;28;20073;-71
2023/06/10 02:39:29;;;;;;;5.40;1.73;;;;;;;;;;5089108;28;20060;-72
2023/06/10 02:41:55;;;;;;;5.78;1.50;;;;;;;;;;5091230;28;20046;-73
2023/06/10 02:44:21;;;;;;;3.80;1.90;;;;;;;;;;5091541;28;20052;-73
2023/06/10 02:46:47;;;;;;;6.10;1.48;;;;;;;;;;5089816;28;20094;-74
2023/06/10 02:49:14;;;;;;;4.55;1.40;;;;;;;;;;5086736;28;20063;-73
2023/06/10 02:51:40;;;;;;;4.10;1.70;;;;;;;;;;5089193;28;20047;-74
2023/06/10 02:54:06;;;;;;;2.60;1.48;;;;;;;;;;5079193;28;20056;-74
2023/06/10 02:56:33;;;;;;;4.50;1.90;;;;;;;;;;5087724;28;21014;-73
2023/06/10 02:59:00;;;;;;;5.47;1.70;;;;;;;;;;5088629;28;20052;-75
2023/06/10 03:01:25;;;;;;;4.93;1.55;;;;;;;;;;5089427;28;20064;-74
2023/06/10 03:03:52;;;;;;;3.50;1.50;;;;;;;;;;5087867;28;20114;-74
2023/06/10 03:06:18;;;;;;;4.50;1.80;;;;;;;;;;5086397;28;20044;-73
2023/06/10 03:08:48;;;;;;;4.22;1.90;;;;;;;;;;5087305;28;20044;-74
2023/06/10 03:11:13;;;;;;;4.07;1.75;;;;;;;;;;5087387;28;20565;-76
2023/06/10 03:13:40;;;;;;;3.75;1.85;;;;;;;;;;5088675;28;20044;-73
2023/06/10 03:16:07;;;;;;;9.02;1.98;;;;;;;;;;5090314;28;20052;-74
2023/06/10 03:18:35;;;;;;;4.30;1.92;;;;;;;;;;5082529;28;20060;-73
2023/06/10 03:21:02;;;;;;;4.40;1.88;;;;;;;;;;5088810;28;20048;-75
2023/06/10 03:23:28;;;;;;;5.97;1.80;;;;;;;;;;5084704;28;20059;-73
2023/06/10 03:25:55;;;;;;;6.70;1.92;;;;;;;;;;5085422;28;20411;-74
2023/06/10 03:28:24;;;;;;;4.97;1.77;;;;;;;;;;5078398;28;20064;-73
2023/06/10 03:30:51;;;;;;;7.05;1.80;;;;;;;;;;5085476;28;20032;-74
2023/06/10 03:33:17;;;;;;;6.07;1.80;;;;;;;;;;5085981;28;20060;-76
2023/06/10 03:35:43;;;;;;;5.47;1.73;;;;;;;;;;5089709;28;20105;-74
2023/06/10 03:38:10;;;;;;;5.90;1.85;;;;;;;;;;5086933;28;20239;-75
2023/06/10 03:40:37;;;;;;;5.60;2.05;;;;;;;;;;5087566;28;20063;-75
2023/06/10 03:43:03;;;;;;;4.88;1.77;;;;;;;;;;5084452;28;20048;-74
2023/06/10 03:45:29;;;;;;;4.97;2.00;;;;;;;;;;5088755;28;20411;-73
2023/06/10 03:47:57;;;;;;;3.53;1.70;;;;;;;;;;5089854;28;20044;-73
2023/06/10 03:50:24;;;;;;;3.33;1.55;;;;;;;;;;5088553;28;20052;-72
2023/06/10 03:52:50;;;;;;;4.60;1.85;;;;;;;;;;5086761;28;20059;-73
2023/06/10 03:55:16;;;;;;;8.00;2.03;;;;;;;;;;5089296;28;20085;-73
2023/06/10 03:57:43;;;;;;;7.45;1.80;;;;;;;;;;5090444;28;20613;-72
2023/06/10 04:00:12;;;;;;;4.85;1.80;;;;;;;;;;5086972;28;20048;-76
2023/06/10 04:02:45;;;;;;;7.70;1.90;;;;;;;;;;5089243;28;20449;-72
2023/06/10 04:05:15;;;;;;;4.95;2.20;;;;;;;;;;5083242;28;20075;-72
2023/06/10 04:07:43;;;;;;;6.68;2.13;;;;;;;;;;5085758;28;20051;-73
2023/06/10 04:10:12;;;;;;;8.88;2.47;;;;;;;;;;5087328;28;20048;-75
2023/06/10 04:12:38;;;;;;;6.22;1.90;;;;;;;;;;5084600;28;20176;-74
2023/06/10 04:15:05;;;;;;;5.28;2.05;;;;;;;;;;5087123;28;20198;-74
2023/06/10 04:17:32;;;;;;;6.15;2.13;;;;;;;;;;5088047;28;20056;-75
2023/06/10 04:19:58;;;;;;;3.78;1.77;;;;;;;;;;5086903;28;20044;-73
2023/06/10 04:22:24;;;;;;;4.85;1.77;;;;;;;;;;5084526;28;20052;-72
2023/06/10 04:24:50;;;;;;;5.60;2.00;;;;;;;;;;5088166;28;20056;-74
2023/06/10 04:27:16;;;;;;;8.23;1.88;;;;;;;;;;5084079;28;20040;-74
2023/06/10 04:29:42;;;;;;;7.28;2.03;;;;;;;;;;5085986;28;20108;-73
2023/06/10 04:32:09;;;;;;;4.00;1.80;;;;;;;;;;5088115;28;20280;-72
2023/06/10 04:34:38;;;;;;;7.68;2.42;;;;;;;;;;5088650;28;20047;-73
2023/06/10 04:37:05;;;;;;;5.95;2.00;;;;;;;;;;5085972;28;20048;-75
2023/06/10 04:39:31;;;;;;;4.95;1.85;;;;;;;;;;5086382;28;20067;-72
2023/06/10 04:41:58;;;;;;;7.28;2.20;;;;;;;;;;5080621;28;20048;-73
2023/06/10 04:44:26;;;;;;;4.18;2.00;;;;;;;;;;5086634;28;20081;-72
2023/06/10 04:46:52;;;;;;;4.75;1.80;;;;;;;;;;5083485;28;20598;-74
2023/06/10 04:49:17;;;;;;;5.68;2.10;;;;;;;;;;5085155;28;20048;-74
2023/06/10 04:51:43;;;;;;;3.97;2.08;;;;;;;;;;5082015;28;20053;-74
2023/06/10 04:54:09;;;;;;;7.53;2.20;;;;;;;;;;5086291;28;20396;-73
2023/06/10 04:56:36;;;;;;;7.80;2.17;;;;;;;;;;5089869;28;20511;-74
2023/06/10 04:59:03;;;;;;;24.50;2.50;;;;;;;;;;5084637;28;20070;-73
2023/06/10 05:01:29;;;;;;;7.90;1.90;;;;;;;;;;5083710;28;20058;-75
2023/06/10 05:03:55;;;;;;;4.72;1.55;;;;;;;;;;5086328;28;20044;-71
2023/06/10 05:06:21;;;;;;;5.20;2.10;;;;;;;;;;5084237;28;20062;-74
2023/06/10 05:08:48;;;;;;;7.30;2.20;;;;;;;;;;5087120;28;20052;-73
2023/06/10 05:11:14;;;;;;;7.03;2.40;;;;;;;;;;5088589;28;20044;-73
2023/06/10 05:13:42;;;;;;;8.75;2.50;;;;;;;;;;5087873;28;20131;-75
2023/06/10 05:16:09;;;;;;;10.05;2.28;;;;;;;;;;5082662;28;20495;-75
2023/06/10 05:18:37;;;;;;;11.77;2.60;;;;;;;;;;5086097;28;20146;-74
2023/06/10 05:21:03;;;;;;;5.28;2.20;;;;;;;;;;5083296;28;20389;-74
2023/06/10 05:23:30;;;;;;;9.48;2.78;;;;;;;;;;5086629;28;20055;-72
2023/06/10 05:25:56;;;;;;;11.43;2.35;;;;;;;;;;5084304;28;20044;-74
2023/06/10 05:28:22;;;;;;;8.63;2.40;;;;;;;;;;5087476;28;20047;-75
2023/06/10 05:30:49;;;;;;;8.15;2.22;;;;;;;;;;5079770;28;20524;-74
2023/06/10 05:33:17;;;;;;;7.35;2.38;;;;;;;;;;5085549;28;20048;-74
2023/06/10 05:35:44;;;;;;;11.93;2.22;;;;;;;;;;5091075;28;20055;-74
2023/06/10 05:38:10;;;;;;;12.10;2.22;;;;;;;;;;5083988;28;20056;-73
2023/06/10 05:40:36;;;;;;;7.40;2.13;;;;;;;;;;5077222;28;20051;-74
2023/06/10 05:43:03;;;;;;;8.13;2.22;;;;;;;;;;5089394;28;20052;-75
2023/06/10 05:45:30;;;;;;;10.13;2.40;;;;;;;;;;5090519;28;20048;-73
2023/06/10 05:48:36;;;;;;;9.93;2.28;;;;;;;;;;5084135;28;20053;-74
2023/06/10 05:52:16;;;;;;;8.43;2.10;;;;;;;;;;5083636;28;20051;-74
2023/06/10 05:55:58;;;;;;;9.25;2.58;;;;;;;;;;5087735;28;20400;-74
2023/06/10 05:59:38;;;;;;;13.52;2.85;;;;;;;;;;5086990;28;20032;-75
2023/06/10 06:03:19;;;;;;;10.70;2.50;;;;;;;;;;5088070;28;20044;-73
2023/06/10 06:06:59;;;;;;;10.25;2.50;;;;;;;;;;5085246;28;20382;-73
2023/06/10 06:10:39;;;;;;;9.05;2.70;;;;;;;;;;5087339;28;20142;-73
2023/06/10 06:14:21;;;;;;;9.27;2.38;;;;;;;;;;5075979;28;20052;-73
2023/06/10 06:18:01;;;;;;;9.02;2.50;;;;;;;;;;5077615;28;20060;-72
2023/06/10 06:21:41;;;;;;;11.93;2.55;;;;;;;;;;5079857;28;20060;-74
2023/06/10 06:25:23;;;;;;;8.82;2.35;;;;;;;;;;5075335;28;20484;-74
2023/06/10 06:29:02;;;;;;;6.90;2.30;;;;;;;;;;5075680;28;20040;-75
2023/06/10 06:32:42;;;;;;;6.20;2.40;;;;;;;;;;5080248;28;20148;-73
2023/06/10 06:36:23;;;;;;;7.50;2.20;;;;;;;;;;5086656;28;20135;-73
2023/06/10 06:39:44;;;;;;;6.03;2.45;;;;;;;;;;5084990;28;20090;-75
2023/06/10 06:42:50;;;;;;;7.32;2.28;;;;;;;;;;5083064;28;20052;-75
2023/06/10 06:46:06;;;;;;;11.13;2.42;;;;;;;;;;5082121;28;20143;-72
2023/06/10 06:49:47;;;;;;;6.57;2.08;;;;;;;;;;5086318;28;20051;-74
2023/06/10 06:53:27;;;;;;;6.15;2.13;;;;;;;;;;5088179;28;20056;-81
2023/06/10 06:57:08;;;;;;;6.50;2.28;;;;;;;;;;5084917;28;20047;-77
2023/06/10 07:00:48;;;;;;;9.75;2.45;;;;;;;;;;5083145;28;20450;-78
2023/06/10 07:04:22;;;;;;;10.98;2.65;;;;;;;;;;5085074;28;20067;-75
2023/06/10 07:07:23;;;;;;;10.05;2.22;;;;;;;;;;5088661;28;20453;-79
2023/06/10 07:09:49;;;;;;;14.70;2.67;;;;;;;;;;5082832;28;20060;-75
2023/06/10 07:12:14;;;;;;;9.73;2.38;;;;;;;;;;5086520;28;20048;-79
2023/06/10 07:14:41;;;;;;;7.43;2.50;;;;;;;;;;5087324;28;20090;-77
2023/06/10 07:17:07;;;;;;;9.48;2.72;;;;;;;;;;5093812;28;20047;-77
2023/06/10 07:19:36;;;;;;;9.02;2.40;;;;;;;;;;5090079;28;20115;-72
2023/06/10 07:22:02;;;;;;;8.23;2.60;;;;;;;;;;5090799;28;20131;-77
2023/06/10 07:24:31;;;;;;;7.50;2.42;;;;;;;;;;5087912;28;20048;-76
2023/06/10 07:26:56;;;;;;;9.88;2.20;;;;;;;;;;5092653;28;20766;-76
2023/06/10 07:29:22;;;;;;;11.75;2.60;;;;;;;;;;5088641;28;20066;-76
2023/06/10 07:31:48;;;;;;;8.10;2.42;;;;;;;;;;5089011;28;20044;-75
2023/06/10 07:34:14;;;;;;;7.50;2.40;;;;;;;;;;5090552;28;20078;-75
2023/06/10 07:36:40;;;;;;;6.47;1.95;;;;;;;;;;5090560;28;20683;-75
2023/06/10 07:39:09;;;;;;;6.03;2.30;;;;;;;;;;5090966;28;20040;-75
2023/06/10 07:41:35;;;;;;;9.43;3.00;;;;;;;;;;5088526;28;20453;-76
2023/06/10 07:44:02;;;;;;;9.95;3.40;;;;;;;;;;5087166;28;20059;-74
2023/06/10 07:46:28;;;;;;;13.07;3.58;;;;;;;;;;5089283;28;20040;-76
2023/06/10 07:49:00;;;;;;;8.68;3.17;;;;;;;;;;5090701;28;20521;-76
2023/06/10 07:51:27;;;;;;;7.22;2.80;;;;;;;;;;5087936;28;20048;-74
2023/06/10 07:53:53;;;;;;;5.25;2.25;;;;;;;;;;5089776;28;20873;-79
2023/06/10 07:56:21;;;;;;;7.43;2.30;;;;;;;;;;5095291;28;20059;-79
2023/06/10 07:58:47;;;;;;;9.90;2.70;;;;;;;;;;5070278;28;20514;-77
2023/06/10 08:01:13;;;;;;;4.40;2.03;;;;;;;;;;5092686;28;20519;-76
2023/06/10 08:03:40;;;;;;;6.80;2.20;;;;;;;;;;5086934;28;20056;-76
2023/06/10 08:06:46;;;;;;;5.90;2.30;;;;;;;;;;5091554;28;20165;-77
2023/06/10 08:10:27;;;;;;;7.88;2.13;;;;;;;;;;5086517;28;20048;-78
2023/06/10 08:14:11;;;;;;;5.80;2.40;;;;;;;;;;5089435;28;20080;-79
2023/06/10 08:17:51;;;;;;;11.90;2.35;;;;;;;;;;5084317;28;20490;-73
2023/06/10 08:21:31;;;;;;;8.93;2.35;;;;;;;;;;5086656;28;20122;-71
2023/06/10 08:25:12;;;;;;;6.05;2.00;;;;;;;;;;5091893;28;20438;-73
2023/06/10 08:28:52;;;;;;;4.93;2.10;;;;;;;;;;5082605;28;20040;-75
2023/06/10 08:32:32;;;;;;;7.88;2.80;;;;;;;;;;5088778;28;20036;-76
2023/06/10 08:36:12;;;;;;;8.48;2.10;;;;;;;;;;5080839;28;20088;-74
2023/06/10 08:39:54;;;;;;;8.60;1.90;;;;;;;;;;5086280;28;20059;-73
2023/06/10 08:43:40;;;;;;;5.95;2.30;;;;;;;;;;5085083;28;20123;-75
2023/06/10 08:47:21;;;;;;;4.90;2.17;;;;;;;;;;5082631;28;20095;-72
2023/06/10 08:51:01;;;;;;;7.10;2.25;;;;;;;;;;5098442;28;20043;-76
2023/06/10 08:54:41;;;;;;;7.60;1.92;;;;;;;;;;5081561;28;20044;-77
2023/06/10 08:58:22;;;;;;;5.57;1.90;;;;;;;;;;5075696;28;20051;-74
2023/06/10 09:02:02;;;;;;;6.75;2.10;;;;;;;;;;5082075;28;20087;-72
2023/06/10 09:05:03;;;;;;;4.43;1.90;;;;;;;;;;5080326;28;20053;-73
2023/06/10 09:07:31;;;;;;;8.50;2.47;;;;;;;;;;5087099;28;20451;-73
2023/06/10 09:09:58;;;;;;;9.32;2.30;;;;;;;;;;5086033;28;20040;-73
2023/06/10 09:12:24;;;;;;;7.00;2.17;;;;;;;;;;5084417;28;20122;-74
2023/06/10 09:14:50;;;;;;;5.97;2.10;;;;;;;;;;5085241;28;20048;-72
2023/06/10 09:17:17;;;;;;;5.53;2.05;;;;;;;;;;5086527;28;20040;-74
2023/06/10 09:19:44;;;;;;;5.72;2.00;;;;;;;;;;5088149;28;20040;-71
2023/06/10 09:22:11;;;;;;;9.85;2.20;;;;;;;;;;5086677;28;20048;-74
2023/06/10 09:24:37;;;;;;;6.47;1.90;;;;;;;;;;5087387;28;20056;-73
2023/06/10 09:27:10;;;;;;;6.80;2.15;;;;;;;;;;5086666;28;20044;-73
2023/06/10 09:29:52;;;;;;;4.70;1.92;;;;;;;;;;5087083;28;20048;-76
2023/06/10 09:32:19;;;;;;;4.65;2.45;;;;;;;;;;5088520;28;20046;-76
2023/06/10 09:34:46;;;;;;;12.10;2.85;;;;;;;;;;5087224;28;20052;-76
2023/06/10 09:37:31;;;;;;;5.15;2.35;;;;;;;;;;5087833;28;20052;-70
2023/06/10 09:40:04;;;;;;;9.20;2.72;;;;;;;;;;5105154;28;20048;-79
2023/06/10 09:42:35;;;;;;;8.70;2.40;;;;;;;;;;5089805;28;20502;-74
2023/06/10 09:45:02;;;;;;;8.20;3.28;;;;;;;;;;5088272;28;20040;-76
2023/06/10 09:47:28;;;;;;;9.85;3.08;;;;;;;;;;5086741;28;20614;-80
2023/06/10 09:49:54;;;;;;;7.68;2.90;;;;;;;;;;5097361;28;20071;-81
2023/06/10 09:52:24;;;;;;;10.30;3.67;;;;;;;;;;5097832;28;20052;-81
2023/06/10 09:54:52;;;;;;;10.70;3.30;;;;;;;;;;5099592;28;20048;-81
2023/06/10 09:57:19;;;;;;;12.48;3.13;;;;;;;;;;5094395;28;20067;-82
2023/06/10 09:59:45;;;;;;;9.25;3.67;;;;;;;;;;5097618;28;20067;-79
2023/06/10 10:02:16;;;;;;;7.88;3.03;;;;;;;;;;5094461;28;20048;-79
2023/06/10 10:04:44;;;;;;;11.02;2.95;;;;;;;;;;5093752;28;20074;-78
2023/06/10 10:07:11;;;;;;;9.88;3.30;;;;;;;;;;5092357;28;20044;-78
2023/06/10 10:09:38;;;;;;;16.42;5.03;;;;;;;;;;5092880;28;20048;-79
2023/06/10 10:12:44;;;;;;;10.10;3.55;;;;;;;;;;5088365;28;20062;-76
2023/06/10 10:16:24;;;;;;;12.02;3.25;;;;;;;;;;5096352;28;20072;-77
2023/06/10 10:20:06;;;;;;;13.48;3.50;;;;;;;;;;5098134;28;20169;-72
2023/06/10 10:23:53;;;;;;;9.40;3.22;;;;;;;;;;5095435;28;20085;-79
2023/06/10 10:27:33;;;;;;;7.72;3.10;;;;;;;;;;5094367;28;20040;-76
2023/06/10 10:31:14;;;;;;;8.15;3.13;;;;;;;;;;5092943;28;20411;-78
2023/06/10 10:35:00;;;;;;;11.57;2.70;;;;;;;;;;5086636;28;20043;-76
2023/06/10 10:38:40;;;;;;;7.85;2.90;;;;;;;;;;5097101;28;20050;-80
2023/06/10 10:42:20;;;;;;;8.55;2.85;;;;;;;;;;5093135;28;20048;-81
2023/06/10 10:46:01;;;;;;;9.52;2.90;;;;;;;;;;5096768;28;20048;-80
2023/06/10 10:49:41;;;;;;;10.32;3.03;;;;;;;;;;5091642;28;20496;-80
2023/06/10 10:53:36;;;;;;;10.68;3.13;;;;;;;;;;5095365;28;20429;-80
2023/06/10 10:57:16;;;;;;;10.02;2.63;;;;;;;;;;5094860;28;20259;-80
2023/06/10 11:00:56;;;;;;;7.28;2.70;;;;;;;;;;5110655;28;20051;-80
2023/06/10 11:04:37;;;;;;;7.70;2.60;;;;;;;;;;5104201;28;20047;-80
2023/06/10 11:08:19;;;;;;;8.10;2.70;;;;;;;;;;5107173;28;20056;-79
2023/06/10 11:12:00;;;;;;;6.95;2.50;;;;;;;;;;5097166;28;20079;-79
2023/06/10 11:15:49;;;;;;;8.13;2.60;;;;;;;;;;5094172;28;20067;-79
2023/06/10 11:19:31;;;;;;;6.97;2.45;;;;;;;;;;5091480;28;20040;-81
2023/06/10 11:23:20;;;;;;;8.65;2.78;;;;;;;;;;5096042;28;20036;-83
2023/06/10 11:27:02;;;;;;;9.70;2.63;;;;;;;;;;5092252;28;20044;-75
2023/06/10 11:30:03;;;;;;;8.95;2.88;;;;;;;;;;5092247;28;20385;-76
2023/06/10 11:33:44;;;;;;;5.80;2.63;;;;;;;;;;5098942;28;20589;-80
2023/06/10 11:37:25;;;;;;;12.10;2.58;;;;;;;;;;5095976;28;20055;-78
2023/06/10 11:41:08;;;;;;;6.57;2.30;;;;;;;;;;5096930;28;20093;-78
2023/06/10 11:44:48;;;;;;;6.22;2.42;;;;;;;;;;5097043;28;20054;-82
2023/06/10 11:48:33;;;;;;;7.35;2.70;;;;;;;;;;5095768;28;20024;-80
2023/06/10 11:51:38;;;;;;;8.45;2.58;;;;;;;;;;5077175;28;20495;-73
2023/06/10 11:54:05;;;;;;;10.07;3.10;;;;;;;;;;5077170;28;20447;-75
2023/06/10 11:56:35;;;;;;;8.10;2.85;;;;;;;;;;5078405;28;20938;-78
2023/06/10 11:59:07;;;;;;;7.65;2.88;;;;;;;;;;5077502;28;20180;-79
2023/06/10 12:01:40;;;;;;;8.75;3.35;;;;;;;;;;5076703;28;20051;-81
2023/06/10 12:04:07;;;;;;;;;;;;;;;;;;5084773;28;20113;-78
2023/06/10 12:06:43;;;;;;;6.53;2.70;;;;;;;;;;5083889;28;20002;-80
2023/06/10 12:09:19;;;;;;;6.82;3.00;;;;;;;;;;5085002;28;20093;-79
2023/06/10 12:11:48;;;;;;;11.07;3.10;;;;;;;;;;5081165;28;20064;-80
2023/06/10 12:14:15;;;;;;;7.63;3.22;;;;;;;;;;5081549;28;20058;-78
2023/06/10 12:16:49;;;;;;;8.35;2.88;;;;;;;;;;5078576;28;20058;-79
2023/06/10 12:19:16;;;;;;;7.85;2.45;;;;;;;;;;5081081;28;20411;-75
2023/06/10 12:21:44;;;;;;;43.22;4.00;;;;;;;;;;5094308;28;20047;-73
2023/06/10 12:24:11;;;;;;;5.85;3.13;;;;;;;;;;5079291;28;20067;-82
2023/06/10 12:26:46;;;;;;;7.15;2.47;;;;;;;;;;5088319;28;20048;-83
2023/06/10 12:29:17;;;;;;;6.57;2.58;;;;;;;;;;5088391;28;20154;-83
2023/06/10 12:32:02;;;;;;;6.93;2.50;;;;;;;;;;5081244;28;20487;-81
2023/06/10 12:34:33;;;;;;;8.50;2.28;;;;;;;;;;5073108;28;20043;-79
2023/06/10 12:37:01;;;;;;;7.15;2.42;;;;;;;;;;5080857;28;20048;-80
2023/06/10 12:39:28;;;;;;;8.90;2.65;;;;;;;;;;5081248;28;20165;-81
2023/06/10 12:41:54;;;;;;;4.90;2.20;;;;;;;;;;5081679;28;20040;-79
2023/06/10 12:44:32;;;;;;;11.38;2.63;;;;;;;;;;5082364;28;20403;-81
2023/06/10 12:46:58;;;;;;;5.13;2.30;;;;;;;;;;5083593;28;20473;-79
2023/06/10 12:49:26;;;;;;;7.80;2.50;;;;;;;;;;5078007;28;20055;-84
2023/06/10 12:51:53;;;;;;;8.73;2.75;;;;;;;;;;5080140;28;20052;-82
2023/06/10 12:54:23;;;;;;;10.00;2.72;;;;;;;;;;5085903;28;20051;-81
2023/06/10 12:56:50;;;;;;;6.40;2.28;;;;;;;;;;5087609;28;20112;-81
2023/06/10 12:59:16;;;;;;;6.85;2.42;;;;;;;;;;5083071;28;20487;-80
2023/06/10 13:01:42;;;;;;;7.82;2.67;;;;;;;;;;5076952;28;20060;-81
2023/06/10 13:04:08;;;;;;;12.02;2.60;;;;;;;;;;5078116;28;20048;-79
2023/06/10 13:06:38;;;;;;;9.07;2.55;;;;;;;;;;5081645;28;20133;-79
2023/06/10 13:09:06;;;;;;;5.80;2.58;;;;;;;;;;5096611;28;20051;-78
2023/06/10 13:11:32;;;;;;;6.55;2.40;;;;;;;;;;5090050;28;20067;-78
2023/06/10 13:13:59;;;;;;;7.78;2.70;;;;;;;;;;5089872;28;20069;-81
2023/06/10 13:16:27;;;;;;;7.53;2.40;;;;;;;;;;5085072;28;20055;-77
2023/06/10 13:18:54;;;;;;;8.82;2.30;;;;;;;;;;5087746;28;20048;-81
2023/06/10 13:21:20;;;;;;;9.80;2.60;;;;;;;;;;5089004;28;20040;-80
2023/06/10 13:23:47;;;;;;;9.38;2.65;;;;;;;;;;5091675;28;20056;-75
2023/06/10 13:26:16;;;;;;;6.68;2.30;;;;;;;;;;5080698;28;20051;-80
2023/06/10 13:28:43;;;;;;;6.57;2.15;;;;;;;;;;5079245;28;20503;-77
2023/06/10 13:31:09;;;;;;;8.45;2.25;;;;;;;;;;5092248;28;20044;-81
2023/06/10 13:33:36;;;;;;;7.40;2.20;;;;;;;;;;5098392;28;20036;-82
2023/06/10 13:36:03;;;;;;;8.48;2.33;;;;;;;;;;5098898;28;20040;-81
2023/06/10 13:38:29;;;;;;;7.88;2.13;;;;;;;;;;5089903;28;20059;-81
2023/06/10 13:40:55;;;;;;;6.68;1.92;;;;;;;;;;5081271;28;20490;-78
2023/06/10 13:43:21;;;;;;;7.38;2.58;;;;;;;;;;5091757;28;20134;-79
2023/06/10 13:45:47;;;;;;;4.85;2.30;;;;;;;;;;5089902;28;20123;-79
2023/06/10 13:48:13;;;;;;;6.80;2.60;;;;;;;;;;5089549;28;20052;-80
2023/06/10 13:50:39;;;;;;;8.32;2.50;;;;;;;;;;5103112;28;20621;-81
2023/06/10 13:53:05;;;;;;;3.45;1.92;;;;;;;;;;5098385;28;20060;-83
2023/06/10 13:55:33;;;;;;;7.95;2.25;;;;;;;;;;5099700;28;20044;-82
2023/06/10 13:58:00;;;;;;;5.32;1.90;;;;;;;;;;5101178;28;20477;-82
2023/06/10 14:00:27;;;;;;;7.55;2.10;;;;;;;;;;5109601;28;20052;-79
2023/06/10 14:02:53;;;;;;;8.02;1.98;;;;;;;;;;5103492;28;20052;-83
2023/06/10 14:05:19;;;;;;;10.32;2.38;;;;;;;;;;5086466;28;20056;-79
2023/06/10 14:07:47;;;;;;;6.68;2.30;;;;;;;;;;5073819;28;20355;-78
2023/06/10 14:10:14;;;;;;;8.15;2.50;;;;;;;;;;5084767;28;20044;-77
2023/06/10 14:12:43;;;;;;;8.95;2.03;;;;;;;;;;5081432;28;20074;-77
2023/06/10 14:15:10;;;;;;;8.30;2.53;;;;;;;;;;5084092;28;20593;-76
2023/06/10 14:17:36;;;;;;;5.75;1.95;;;;;;;;;;5085231;28;20589;-74
2023/06/10 14:20:05;;;;;;;5.32;2.17;;;;;;;;;;5085106;28;20075;-74
2023/06/10 14:22:31;;;;;;;9.57;1.95;;;;;;;;;;5085029;28;20055;-80
2023/06/10 14:24:57;;;;;;;5.90;2.13;;;;;;;;;;5081294;28;20059;-75
2023/06/10 14:27:23;;;;;;;7.32;2.08;;;;;;;;;;5084949;28;20793;-81
2023/06/10 14:29:50;;;;;;;7.35;2.40;;;;;;;;;;5092365;28;20036;-77
2023/06/10 14:32:16;;;;;;;5.85;2.00;;;;;;;;;;5095332;28;20048;-84
2023/06/10 14:34:44;;;;;;;7.10;2.10;;;;;;;;;;5086924;28;20059;-80
2023/06/10 14:37:10;;;;;;;6.35;2.38;;;;;;;;;;5083099;28;20419;-76
2023/06/10 14:39:36;;;;;;;4.47;1.98;;;;;;;;;;5082590;28;20117;-78
2023/06/10 14:42:02;;;;;;;7.30;1.92;;;;;;;;;;5078984;28;20145;-75
2023/06/10 14:44:29;;;;;;;7.50;2.00;;;;;;;;;;5084780;28;20488;-76
2023/06/10 14:46:55;;;;;;;5.95;2.10;;;;;;;;;;5084152;28;20052;-75
2023/06/10 14:49:21;;;;;;;5.05;1.95;;;;;;;;;;5083522;28;20058;-75
2023/06/10 14:51:49;;;;;;;6.55;1.77;;;;;;;;;;5086511;28;20040;-72
2023/06/10 14:54:16;;;;;;;4.80;1.95;;;;;;;;;;5083403;28;20519;-75
2023/06/10 14:56:42;;;;;;;6.13;2.40;;;;;;;;;;5086029;28;20664;-79
2023/06/10 14:59:07;;;;;;;3.97;1.73;;;;;;;;;;5085620;28;20052;-75
2023/06/10 15:01:34;;;;;;;5.78;2.00;;;;;;;;;;5088156;28;20088;-79
2023/06/10 15:04:00;;;;;;;6.35;1.67;;;;;;;;;;5093201;28;20044;-77
2023/06/10 15:06:26;;;;;;;5.20;2.10;;;;;;;;;;5089666;28;20060;-80
2023/06/10 15:08:52;;;;;;;6.35;1.90;;;;;;;;;;5090494;28;20062;-76
2023/06/10 15:11:18;;;;;;;8.50;2.22;;;;;;;;;;5090148;28;20422;-78
2023/06/10 15:13:45;;;;;;;4.85;1.90;;;;;;;;;;5082761;28;20051;-75
2023/06/10 15:16:11;;;;;;;5.57;2.22;;;;;;;;;;5096249;28;20059;-75
2023/06/10 15:18:37;;;;;;;6.75;2.58;;;;;;;;;;5086626;28;20052;-74
2023/06/10 15:21:05;;;;;;;5.07;2.10;;;;;;;;;;5088530;28;20048;-78
2023/06/10 15:23:31;;;;;;;6.43;2.25;;;;;;;;;;5080713;28;20073;-73
2023/06/10 15:25:58;;;;;;;5.72;2.10;;;;;;;;;;5089257;28;20052;-74
2023/06/10 15:28:23;;;;;;;4.32;2.30;;;;;;;;;;5088965;28;20048;-81
2023/06/10 15:30:50;;;;;;;5.63;2.13;;;;;;;;;;5091934;28;20059;-80
2023/06/10 15:33:16;;;;;;;9.73;2.20;;;;;;;;;;5095822;28;20051;-80
2023/06/10 15:35:42;;;;;;;7.75;2.70;;;;;;;;;;5087046;28;20357;-76
2023/06/10 15:38:10;;;;;;;7.03;2.25;;;;;;;;;;5089499;28;20040;-78
2023/06/10 15:40:38;;;;;;;4.07;1.67;;;;;;;;;;5087792;28;20052;-75
2023/06/10 15:43:05;;;;;;;6.07;1.90;;;;;;;;;;5084334;28;20465;-80
2023/06/10 15:45:31;;;;;;;6.75;2.42;;;;;;;;;;5088122;28;20059;-77
2023/06/10 15:47:57;;;;;;;7.60;2.20;;;;;;;;;;5086217;28;20040;-75
2023/06/10 15:50:23;;;;;;;5.15;1.75;;;;;;;;;;5087089;28;20064;-78
2023/06/10 15:52:50;;;;;;;10.70;3.58;;;;;;;;;;5086356;28;20071;-83
2023/06/10 15:55:17;;;;;;;4.20;1.58;;;;;;;;;;5087638;28;20407;-73
2023/06/10 15:57:43;;;;;;;7.15;1.73;;;;;;;;;;5085203;28;20470;-79
2023/06/10 16:00:10;;;;;;;6.50;1.85;;;;;;;;;;5094223;28;20052;-76